Time;durP1;ratioP1;P1;durP2;ratioP2;P2;SDS_P1;SDS_P2;PMS_P1;PMS_P2;Temp;Humidity;BMP_temperature;BMP_pressure;BME280_temperature;BME280_humidity;BME280_pressure;Samples;Min_cycle;Max_cycle;Signal;HPM_P1;HPM_P2
2021/11/29 00:02:11;;;;;;;28.58;14.70;;;;;;;3.00;100.00;98997.13;5186593;28;20041;-80
2021/11/29 00:04:43;;;;;;;31.10;14.73;;;;;;;2.91;100.00;98999.16;5182162;28;20047;-81
2021/11/29 00:07:14;;;;;;;25.17;13.70;;;;;;;2.96;100.00;99005.00;5182749;28;20045;-80
2021/11/29 00:09:45;;;;;;;27.73;14.25;;;;;;;3.02;100.00;98999.69;5180507;28;20022;-81
2021/11/29 00:12:15;;;;;;;30.52;14.35;;;;;;;3.07;100.00;98997.78;5189012;28;20800;-80
2021/11/29 00:14:46;;;;;;;26.80;13.88;;;;;;;3.10;100.00;99008.00;5179149;28;20105;-81
2021/11/29 00:17:16;;;;;;;24.67;13.63;;;;;;;3.19;100.00;99007.75;5173386;28;20041;-80
2021/11/29 00:19:46;;;;;;;27.58;14.15;;;;;;;3.17;100.00;99005.19;5176292;28;20428;-80
2021/11/29 00:22:18;;;;;;;27.83;14.00;;;;;;;3.35;100.00;99003.78;5181964;28;20144;-80
2021/11/29 00:24:48;;;;;;;26.80;13.27;;;;;;;3.23;100.00;99009.31;5180050;28;20539;-81
2021/11/29 00:27:19;;;;;;;26.42;12.30;;;;;;;3.37;100.00;99010.56;5196826;28;20038;-80
2021/11/29 00:29:49;;;;;;;26.75;13.65;;;;;;;3.41;100.00;99011.31;5184011;28;20105;-80
2021/11/29 00:32:19;;;;;;;27.90;13.90;;;;;;;3.26;100.00;99014.38;5184205;28;20030;-80
2021/11/29 00:34:50;;;;;;;25.25;12.60;;;;;;;3.28;100.00;99007.44;5183432;28;20504;-80
2021/11/29 00:37:21;;;;;;;23.15;12.13;;;;;;;3.24;100.00;99016.16;5182920;28;20057;-80
2021/11/29 00:39:52;;;;;;;22.00;11.93;;;;;;;3.24;100.00;99008.44;5199758;28;20042;-80
2021/11/29 00:42:23;;;;;;;24.63;12.68;;;;;;;3.30;100.00;99009.09;5183842;28;20065;-81
2021/11/29 00:44:53;;;;;;;23.98;13.23;;;;;;;3.14;100.00;99010.47;5184348;28;20037;-81
2021/11/29 00:47:23;;;;;;;23.98;12.60;;;;;;;3.20;100.00;99019.75;5190087;28;20037;-81
2021/11/29 00:49:54;;;;;;;26.02;12.63;;;;;;;3.11;100.00;99015.72;5185901;28;20180;-80
2021/11/29 00:52:24;;;;;;;24.48;12.07;;;;;;;3.15;100.00;99022.47;5190556;28;20030;-80
2021/11/29 00:54:54;;;;;;;24.00;11.95;;;;;;;3.20;100.00;99017.16;5184738;28;20045;-79
2021/11/29 00:57:25;;;;;;;22.05;11.02;;;;;;;3.23;100.00;99010.16;5182379;28;20052;-80
2021/11/29 00:59:55;;;;;;;20.80;11.02;;;;;;;3.23;100.00;99019.66;5200579;28;20308;-80
2021/11/29 01:02:26;;;;;;;22.10;10.48;;;;;;;3.51;100.00;99016.13;5175813;28;20026;-80
2021/11/29 01:04:56;;;;;;;20.45;9.82;;;;;;;3.48;100.00;99020.53;5183334;28;20025;-80
2021/11/29 01:07:26;;;;;;;18.25;8.50;;;;;;;3.43;100.00;99020.72;5176102;28;20058;-80
2021/11/29 01:09:57;;;;;;;14.25;7.70;;;;;;;3.40;100.00;99022.53;5203042;28;20032;-80
2021/11/29 01:12:28;;;;;;;12.57;7.22;;;;;;;3.47;100.00;99027.47;5183377;28;20032;-80
2021/11/29 01:14:59;;;;;;;13.07;6.85;;;;;;;3.36;100.00;99021.78;5187935;28;20033;-80
2021/11/29 01:17:29;;;;;;;11.13;5.97;;;;;;;3.50;100.00;99023.94;5176514;28;20029;-80
2021/11/29 01:20:00;;;;;;;9.60;5.03;;;;;;;3.50;100.00;99029.13;5184334;28;20018;-80
2021/11/29 01:22:30;;;;;;;9.15;5.00;;;;;;;3.34;100.00;99030.50;5183080;28;20124;-80
2021/11/29 01:25:01;;;;;;;7.95;4.20;;;;;;;3.45;100.00;99038.72;5188276;28;20030;-81
2021/11/29 01:27:31;;;;;;;7.10;3.97;;;;;;;3.43;100.00;99037.94;5182245;28;20061;-81
2021/11/29 01:30:04;;;;;;;9.25;4.78;;;;;;;3.57;100.00;99046.91;5186867;28;20032;-81
2021/11/29 01:32:35;;;;;;;10.30;4.93;;;;;;;3.59;100.00;99045.97;5182625;28;20052;-82
2021/11/29 01:35:05;;;;;;;12.43;6.00;;;;;;;3.45;100.00;99041.31;5187188;28;20053;-80
2021/11/29 01:37:36;;;;;;;10.85;6.35;;;;;;;3.44;100.00;99050.81;5183907;28;20408;-80
2021/11/29 01:40:08;;;;;;;11.95;6.38;;;;;;;3.41;100.00;99050.03;5188439;28;20022;-80
2021/11/29 01:42:54;;;;;;;13.73;7.07;;;;;;;3.52;100.00;99055.72;5183722;28;20036;-80
2021/11/29 01:45:30;;;;;;;12.65;6.53;;;;;;;3.71;100.00;99055.94;5192422;28;20030;-80
2021/11/29 01:48:00;;;;;;;;;;;;;;;3.48;100.00;99056.69;5174316;28;20060;-81
2021/11/29 01:50:31;;;;;;;13.30;5.88;;;;;;;3.37;100.00;99059.63;5198969;28;19977;-80
2021/11/29 01:53:01;;;;;;;15.20;6.97;;;;;;;3.39;100.00;99068.16;5203470;28;20221;-80
2021/11/29 01:55:34;;;;;;;12.23;6.93;;;;;;;3.42;100.00;99060.34;5182324;28;20574;-81
2021/11/29 01:58:05;;;;;;;13.38;7.32;;;;;;;3.55;100.00;99066.78;5175105;28;20026;-80
2021/11/29 02:00:45;;;;;;;13.88;6.82;;;;;;;3.64;100.00;99059.59;5176787;28;20086;-81
2021/11/29 02:03:16;;;;;;;15.90;6.50;;;;;;;3.52;100.00;99066.06;5185377;28;20061;-79
2021/11/29 02:05:46;;;;;;;11.98;6.68;;;;;;;3.69;100.00;99068.06;5199923;28;20234;-80
2021/11/29 02:08:17;;;;;;;11.07;6.13;;;;;;;3.66;100.00;99068.16;5185330;28;20053;-80
2021/11/29 02:10:48;;;;;;;11.55;5.82;;;;;;;3.58;100.00;99073.59;5184250;28;20022;-80
2021/11/29 02:13:19;;;;;;;11.63;6.28;;;;;;;3.50;100.00;99068.66;5184271;28;20065;-80
2021/11/29 02:15:52;;;;;;;11.55;6.22;;;;;;;3.46;100.00;99073.97;5187374;28;20018;-80
2021/11/29 02:18:26;;;;;;;9.93;5.75;;;;;;;3.39;100.00;99072.47;5190005;28;20026;-81
2021/11/29 02:21:09;;;;;;;12.55;6.00;;;;;;;3.43;100.00;99080.09;5192117;28;20069;-80
2021/11/29 02:23:47;;;;;;;10.10;5.80;;;;;;;3.41;100.00;99084.47;5180684;28;20026;-80
2021/11/29 02:26:21;;;;;;;13.77;6.13;;;;;;;3.45;100.00;99074.88;5199568;28;20093;-82
2021/11/29 02:28:57;;;;;;;12.18;6.03;;;;;;;3.53;100.00;99083.22;5165617;28;20030;-82
2021/11/29 02:31:36;;;;;;;11.63;6.38;;;;;;;3.45;100.00;99083.47;5175988;28;20125;-81
2021/11/29 02:34:14;;;;;;;9.93;5.40;;;;;;;3.48;100.00;99087.69;5180282;28;20029;-82
2021/11/29 02:36:47;;;;;;;11.85;5.43;;;;;;;3.54;100.00;99092.66;5177623;28;20102;-81
2021/11/29 02:39:18;;;;;;;13.38;5.43;;;;;;;3.53;100.00;99080.66;5175946;28;20445;-80
2021/11/29 02:41:52;;;;;;;9.50;5.18;;;;;;;3.48;100.00;99072.19;5196038;28;20056;-82
2021/11/29 02:44:23;;;;;;;8.30;5.00;;;;;;;3.42;100.00;99086.16;5182662;28;20041;-82
2021/11/29 02:46:54;;;;;;;7.88;4.80;;;;;;;3.37;100.00;99084.59;5175478;28;20117;-81
2021/11/29 02:49:25;;;;;;;9.75;4.63;;;;;;;3.36;100.00;99088.06;5178842;28;20057;-82
2021/11/29 02:51:58;;;;;;;7.60;5.10;;;;;;;3.44;100.00;99086.09;5178675;28;20079;-81
2021/11/29 02:54:32;;;;;;;9.90;4.93;;;;;;;3.34;100.00;99087.28;5178500;28;20021;-82
2021/11/29 02:57:06;;;;;;;8.38;4.32;;;;;;;3.43;100.00;99090.41;5174653;28;20030;-81
2021/11/29 02:59:38;;;;;;;7.07;4.53;;;;;;;3.36;100.00;99090.66;5173885;28;20526;-82
2021/11/29 03:02:12;;;;;;;7.13;4.68;;;;;;;3.39;100.00;99085.41;5163565;28;20561;-81
2021/11/29 03:04:45;;;;;;;8.90;4.97;;;;;;;3.36;100.00;99094.06;5164913;28;20492;-81
2021/11/29 03:07:16;;;;;;;8.10;4.93;;;;;;;3.43;100.00;99094.72;5166409;28;20042;-82
2021/11/29 03:09:47;;;;;;;8.75;5.15;;;;;;;3.25;100.00;99095.28;5174650;28;20045;-82
2021/11/29 03:12:17;;;;;;;8.85;4.85;;;;;;;3.23;100.00;99089.31;5195413;28;20325;-81
2021/11/29 03:14:48;;;;;;;6.72;4.47;;;;;;;3.44;100.00;99092.09;5182107;28;20041;-82
2021/11/29 03:17:18;;;;;;;7.82;4.60;;;;;;;3.59;100.00;99092.47;5175428;28;20026;-80
2021/11/29 03:19:49;;;;;;;7.40;4.70;;;;;;;3.65;100.00;99097.44;5185638;28;20026;-81
2021/11/29 03:22:19;;;;;;;7.50;4.75;;;;;;;3.57;100.00;99093.41;5177201;28;20408;-82
2021/11/29 03:24:50;;;;;;;7.63;4.70;;;;;;;3.60;100.00;99094.16;5180303;28;20393;-80
2021/11/29 03:27:20;;;;;;;7.82;4.97;;;;;;;3.59;100.00;99097.63;5170804;28;20026;-82
2021/11/29 03:29:51;;;;;;;8.63;4.82;;;;;;;3.44;100.00;99101.56;5182767;28;20103;-82
2021/11/29 03:32:22;;;;;;;10.48;5.22;;;;;;;3.36;100.00;99098.41;5176181;28;20040;-80
2021/11/29 03:34:53;;;;;;;8.65;5.05;;;;;;;3.34;100.00;99095.03;5188551;28;20094;-81
2021/11/29 03:37:23;;;;;;;8.30;4.68;;;;;;;3.28;100.00;99090.03;5179583;28;20109;-82
2021/11/29 03:39:54;;;;;;;8.63;5.15;;;;;;;3.18;100.00;99083.47;5179122;28;20038;-81
2021/11/29 03:42:24;;;;;;;10.95;4.78;;;;;;;3.27;100.00;99089.19;5188261;28;20122;-81
2021/11/29 03:44:56;;;;;;;9.10;5.20;;;;;;;3.43;100.00;99097.31;5176634;28;20022;-81
2021/11/29 03:47:26;;;;;;;7.53;4.55;;;;;;;3.35;100.00;99099.28;5166806;28;20026;-81
2021/11/29 03:49:56;;;;;;;8.40;4.95;;;;;;;3.35;100.00;99102.69;5192630;28;20547;-80
2021/11/29 03:52:27;;;;;;;7.45;4.88;;;;;;;3.17;100.00;99112.75;5173739;28;20034;-81
2021/11/29 03:54:57;;;;;;;9.02;4.55;;;;;;;3.35;100.00;99107.88;5171479;28;20030;-81
2021/11/29 03:57:28;;;;;;;7.00;4.18;;;;;;;3.42;100.00;99108.53;5167741;28;20124;-81
2021/11/29 03:59:58;;;;;;;6.90;4.15;;;;;;;3.30;100.00;99111.47;5175035;28;20057;-81
2021/11/29 04:02:29;;;;;;;6.57;3.90;;;;;;;3.30;100.00;99121.78;5175360;28;20522;-81
2021/11/29 04:04:59;;;;;;;6.75;4.60;;;;;;;3.28;100.00;99115.84;5173335;28;20026;-82
2021/11/29 04:07:29;;;;;;;6.85;4.43;;;;;;;3.16;100.00;99117.06;5172945;28;20029;-82
2021/11/29 04:10:00;;;;;;;7.95;4.15;;;;;;;3.34;100.00;99123.41;5189369;28;20022;-80
2021/11/29 04:12:30;;;;;;;7.60;3.72;;;;;;;3.21;100.00;99125.50;5171537;28;20120;-81
2021/11/29 04:15:02;;;;;;;6.28;4.03;;;;;;;3.20;100.00;99133.31;5173252;28;20064;-79
2021/11/29 04:17:32;;;;;;;6.03;4.18;;;;;;;3.17;100.00;99133.41;5185003;28;20130;-81
2021/11/29 04:20:03;;;;;;;5.95;3.92;;;;;;;3.15;100.00;99136.00;5167627;28;20141;-79
2021/11/29 04:22:37;;;;;;;5.97;3.60;;;;;;;3.18;100.00;99135.09;5175769;28;20280;-82
2021/11/29 04:25:10;;;;;;;5.13;3.67;;;;;;;3.26;100.00;99136.56;5191874;28;20080;-82
2021/11/29 04:27:42;;;;;;;7.00;4.30;;;;;;;3.32;100.00;99130.34;5163045;28;20038;-79
2021/11/29 04:30:19;;;;;;;7.80;4.20;;;;;;;3.35;100.00;99138.84;5172710;28;20106;-81
2021/11/29 04:32:51;;;;;;;6.15;3.80;;;;;;;3.18;100.00;99138.50;5173801;28;20030;-82
2021/11/29 04:35:22;;;;;;;7.38;3.90;;;;;;;3.19;100.00;99147.09;5168787;28;20037;-80
2021/11/29 04:37:52;;;;;;;6.60;3.90;;;;;;;3.46;100.00;99135.94;5188707;28;20383;-81
2021/11/29 04:40:23;;;;;;;8.40;3.88;;;;;;;3.35;100.00;99145.75;5175593;28;20022;-81
2021/11/29 04:42:53;;;;;;;7.85;4.18;;;;;;;3.41;100.00;99149.00;5181525;28;20099;-81
2021/11/29 04:45:23;;;;;;;8.63;3.95;;;;;;;3.43;100.00;99148.94;5173129;28;20033;-81
2021/11/29 04:47:54;;;;;;;7.38;3.80;;;;;;;3.48;100.00;99155.66;5176021;28;20038;-82
2021/11/29 04:50:25;;;;;;;6.82;3.70;;;;;;;3.43;100.00;99164.44;5175841;28;20388;-82
2021/11/29 04:52:55;;;;;;;6.03;3.97;;;;;;;3.56;100.00;99163.19;5177808;28;20114;-81
2021/11/29 04:55:25;;;;;;;6.80;3.58;;;;;;;3.58;100.00;99163.09;5180404;28;20034;-81
2021/11/29 04:57:56;;;;;;;6.82;4.30;;;;;;;3.52;100.00;99171.91;5164213;28;20062;-81
2021/11/29 05:00:26;;;;;;;6.90;3.92;;;;;;;3.57;100.00;99164.88;5179028;28;20480;-81
2021/11/29 05:02:57;;;;;;;4.70;3.58;;;;;;;3.43;100.00;99160.13;5170683;28;20130;-82
2021/11/29 05:05:27;;;;;;;7.05;4.22;;;;;;;3.63;100.00;99161.19;5171922;28;20029;-82
2021/11/29 05:07:58;;;;;;;6.20;4.13;;;;;;;3.49;100.00;99171.97;5174334;28;20558;-81
2021/11/29 05:10:28;;;;;;;6.47;3.90;;;;;;;3.48;100.00;99178.03;5188478;28;20161;-82
2021/11/29 05:12:58;;;;;;;7.55;4.55;;;;;;;3.55;100.00;99177.00;5173054;28;20503;-79
2021/11/29 05:15:29;;;;;;;6.78;4.25;;;;;;;3.53;100.00;99183.94;5170405;28;20389;-79
2021/11/29 05:17:59;;;;;;;8.55;4.47;;;;;;;3.48;100.00;99188.38;5166550;28;20033;-82
2021/11/29 05:20:30;;;;;;;7.40;4.35;;;;;;;3.45;100.00;99189.31;5172917;28;20042;-82
2021/11/29 05:23:01;;;;;;;7.30;4.50;;;;;;;3.47;100.00;99197.00;5173293;28;20033;-80
2021/11/29 05:25:31;;;;;;;18.42;8.40;;;;;;;3.56;100.00;99199.34;5186878;28;20033;-81
2021/11/29 05:28:02;;;;;;;7.93;4.80;;;;;;;3.38;100.00;99198.13;5167503;28;20030;-80
2021/11/29 05:30:32;;;;;;;7.93;4.80;;;;;;;3.36;100.00;99207.66;5170369;28;20518;-80
2021/11/29 05:33:03;;;;;;;9.18;5.22;;;;;;;3.14;100.00;99208.28;5174789;28;20053;-80
2021/11/29 05:35:34;;;;;;;8.02;5.22;;;;;;;3.17;100.00;99215.97;5191736;28;20038;-82
2021/11/29 05:38:04;;;;;;;7.93;5.13;;;;;;;3.25;100.00;99214.00;5179920;28;20030;-82
2021/11/29 05:40:35;;;;;;;8.55;5.03;;;;;;;3.18;100.00;99217.66;5162761;28;20042;-80
2021/11/29 05:43:05;;;;;;;7.32;4.40;;;;;;;3.23;100.00;99220.97;5175707;28;20025;-81
2021/11/29 05:45:36;;;;;;;8.85;4.60;;;;;;;3.20;100.00;99228.78;5190093;28;20260;-80
2021/11/29 05:48:06;;;;;;;7.68;4.40;;;;;;;3.21;100.00;99228.72;5169700;28;20026;-82
2021/11/29 05:50:38;;;;;;;10.35;4.72;;;;;;;3.27;100.00;99228.56;5173245;28;20053;-79
2021/11/29 05:53:08;;;;;;;8.93;5.13;;;;;;;3.24;100.00;99239.00;5168148;28;20037;-81
2021/11/29 05:55:39;;;;;;;7.72;4.95;;;;;;;3.54;100.00;99234.69;5174248;28;20026;-82
2021/11/29 05:58:09;;;;;;;7.90;4.95;;;;;;;3.48;100.00;99232.25;5172949;28;20036;-81
2021/11/29 06:00:40;;;;;;;7.20;4.60;;;;;;;3.58;100.00;99238.88;5187307;28;20109;-82
2021/11/29 06:03:10;;;;;;;6.35;4.68;;;;;;;3.61;100.00;99245.63;5190163;28;20061;-80
2021/11/29 06:05:40;;;;;;;7.63;4.95;;;;;;;3.54;100.00;99252.75;5174058;28;20117;-79
2021/11/29 06:08:11;;;;;;;7.63;4.50;;;;;;;3.46;100.00;99254.69;5178895;28;20033;-81
2021/11/29 06:10:41;;;;;;;8.52;4.75;;;;;;;3.50;100.00;99254.56;5172065;28;20014;-82
2021/11/29 06:13:12;;;;;;;6.93;4.50;;;;;;;3.49;100.00;99259.78;5177680;28;20030;-81
2021/11/29 06:15:43;;;;;;;8.18;4.75;;;;;;;3.73;100.00;99254.75;5173964;28;20025;-82
2021/11/29 06:18:13;;;;;;;6.97;4.65;;;;;;;3.64;100.00;99266.19;5167481;28;20266;-82
2021/11/29 06:20:44;;;;;;;8.00;4.85;;;;;;;3.59;100.00;99262.06;5182721;28;20018;-82
2021/11/29 06:23:14;;;;;;;6.85;4.30;;;;;;;3.67;100.00;99258.38;5169091;28;20084;-83
2021/11/29 06:25:45;;;;;;;7.95;4.57;;;;;;;3.73;100.00;99268.53;5175328;28;20258;-83
2021/11/29 06:28:15;;;;;;;7.32;4.55;;;;;;;3.75;100.00;99271.91;5185704;28;20496;-81
2021/11/29 06:30:45;;;;;;;6.38;4.10;;;;;;;3.53;100.00;99275.16;5173005;28;20053;-83
2021/11/29 06:33:16;;;;;;;7.25;4.63;;;;;;;3.55;100.00;99280.28;5185662;28;20121;-83
2021/11/29 06:35:46;;;;;;;9.23;4.90;;;;;;;3.44;100.00;99279.72;5173646;28;20030;-82
2021/11/29 06:38:18;;;;;;;9.65;5.80;;;;;;;3.26;100.00;99287.97;5173124;28;20349;-82
2021/11/29 06:40:51;;;;;;;10.73;6.00;;;;;;;3.35;100.00;99292.91;5184631;28;20084;-82
2021/11/29 06:43:22;;;;;;;11.48;5.88;;;;;;;3.31;100.00;99291.25;5174450;28;20030;-82
2021/11/29 06:45:53;;;;;;;11.55;7.05;;;;;;;3.39;100.00;99297.09;5167420;28;20050;-82
2021/11/29 06:48:23;;;;;;;10.63;6.63;;;;;;;3.40;100.00;99296.19;5166201;28;20030;-83
2021/11/29 06:50:54;;;;;;;12.55;6.55;;;;;;;3.30;100.00;99294.75;5180734;28;20093;-80
2021/11/29 06:53:25;;;;;;;10.85;6.40;;;;;;;3.32;100.00;99298.97;5162560;28;20503;-81
2021/11/29 06:55:56;;;;;;;12.10;6.75;;;;;;;3.37;100.00;99304.03;5187352;28;20049;-82
2021/11/29 06:58:27;;;;;;;13.15;6.78;;;;;;;3.51;100.00;99310.50;5166741;28;20141;-82
2021/11/29 07:00:58;;;;;;;11.38;6.80;;;;;;;3.44;100.00;99310.72;5189148;28;20161;-81
2021/11/29 07:03:29;;;;;;;10.70;7.03;;;;;;;3.46;100.00;99314.09;5182302;28;20073;-80
2021/11/29 07:06:00;;;;;;;12.98;6.72;;;;;;;3.37;100.00;99316.94;5184137;28;20573;-83
2021/11/29 07:08:31;;;;;;;11.20;6.38;;;;;;;3.38;100.00;99318.63;5183969;28;20057;-82
2021/11/29 07:11:01;;;;;;;13.13;7.13;;;;;;;3.47;100.00;99313.19;5198560;28;20048;-82
2021/11/29 07:13:32;;;;;;;13.55;7.00;;;;;;;3.48;100.00;99320.91;5183370;28;20106;-83
2021/11/29 07:16:03;;;;;;;13.60;7.22;;;;;;;3.47;100.00;99320.94;5173544;28;20037;-82
2021/11/29 07:18:34;;;;;;;13.10;7.78;;;;;;;3.59;100.00;99317.13;5181422;28;20038;-79
2021/11/29 07:21:04;;;;;;;13.18;8.27;;;;;;;3.62;100.00;99319.63;5174555;28;20080;-83
2021/11/29 07:23:36;;;;;;;13.40;7.53;;;;;;;3.46;100.00;99330.44;5178088;28;20065;-82
2021/11/29 07:26:06;;;;;;;12.55;6.55;;;;;;;3.25;100.00;99337.91;5172649;28;20535;-82
2021/11/29 07:28:37;;;;;;;11.50;6.50;;;;;;;3.28;100.00;99342.97;5187226;28;20033;-83
2021/11/29 07:31:07;;;;;;;11.80;5.65;;;;;;;3.27;100.00;99346.44;5171933;28;20100;-82
2021/11/29 07:33:38;;;;;;;10.02;5.55;;;;;;;3.29;100.00;99353.28;5185361;28;20132;-82
2021/11/29 07:36:08;;;;;;;10.68;5.63;;;;;;;3.46;100.00;99353.69;5182378;28;20459;-79
2021/11/29 07:38:38;;;;;;;10.80;6.38;;;;;;;3.28;100.00;99354.16;5173204;28;20068;-82
2021/11/29 07:41:09;;;;;;;10.95;5.97;;;;;;;3.37;100.00;99358.25;5200934;28;20017;-81
2021/11/29 07:43:39;;;;;;;14.05;6.53;;;;;;;3.26;100.00;99371.44;5193354;28;20030;-82
2021/11/29 07:46:10;;;;;;;11.77;6.85;;;;;;;3.26;100.00;99374.00;5163931;28;20029;-79
2021/11/29 07:48:40;;;;;;;11.38;7.20;;;;;;;3.15;100.00;99377.72;5171425;28;20033;-80
2021/11/29 07:51:10;;;;;;;12.80;7.68;;;;;;;3.20;100.00;99381.06;5172418;28;20648;-81
2021/11/29 07:53:41;;;;;;;13.20;7.18;;;;;;;3.26;100.00;99386.06;5176697;28;20026;-82
2021/11/29 07:56:11;;;;;;;12.60;6.95;;;;;;;3.46;100.00;99383.81;5170412;28;20030;-81
2021/11/29 07:58:42;;;;;;;11.20;7.15;;;;;;;3.36;100.00;99398.69;5166558;28;20069;-81
2021/11/29 08:01:12;;;;;;;12.95;8.00;;;;;;;3.40;100.00;99395.13;5173461;28;20026;-80
2021/11/29 08:03:43;;;;;;;10.95;6.97;;;;;;;3.58;100.00;99398.97;5176196;28;20025;-80
2021/11/29 08:06:13;;;;;;;11.02;7.05;;;;;;;3.58;100.00;99399.84;5190850;28;20023;-81
2021/11/29 08:08:44;;;;;;;12.68;7.47;;;;;;;3.55;100.00;99401.66;5175281;28;20030;-83
2021/11/29 08:11:14;;;;;;;15.57;7.95;;;;;;;3.32;100.00;99407.41;5185846;28;20034;-82
2021/11/29 08:13:45;;;;;;;12.60;7.30;;;;;;;3.28;100.00;99410.94;5187080;28;20037;-79
2021/11/29 08:16:16;;;;;;;14.73;9.00;;;;;;;3.31;100.00;99417.75;5185314;28;20120;-81
2021/11/29 08:18:47;;;;;;;13.50;8.60;;;;;;;3.27;100.00;99418.72;5167008;28;20403;-82
2021/11/29 08:21:17;;;;;;;14.10;7.97;;;;;;;3.51;100.00;99418.94;5168558;28;20034;-82
2021/11/29 08:23:48;;;;;;;15.82;8.55;;;;;;;3.27;100.00;99423.88;5172312;28;20491;-80
2021/11/29 08:26:18;;;;;;;14.07;8.15;;;;;;;3.58;100.00;99430.84;5182055;28;20511;-81
2021/11/29 08:28:48;;;;;;;14.02;8.00;;;;;;;3.67;100.00;99426.28;5165514;28;20265;-81
2021/11/29 08:31:19;;;;;;;14.68;8.40;;;;;;;3.62;100.00;99432.44;5178255;28;20023;-81
2021/11/29 08:33:49;;;;;;;13.75;8.70;;;;;;;3.50;100.00;99431.91;5182405;28;20026;-80
2021/11/29 08:36:20;;;;;;;14.85;7.25;;;;;;;3.49;100.00;99435.34;5172347;28;20038;-81
2021/11/29 08:38:50;;;;;;;13.65;7.78;;;;;;;3.58;100.00;99429.97;5173001;28;20026;-81
2021/11/29 08:41:21;;;;;;;12.15;7.45;;;;;;;3.66;100.00;99442.66;5177684;28;20026;-81
2021/11/29 08:43:52;;;;;;;13.40;7.35;;;;;;;3.73;100.00;99446.78;5176542;28;20041;-81
2021/11/29 08:46:23;;;;;;;13.98;7.65;;;;;;;3.82;100.00;99446.50;5173375;28;20026;-81
2021/11/29 08:48:53;;;;;;;14.02;7.50;;;;;;;3.89;100.00;99442.88;5174509;28;20037;-81
2021/11/29 08:51:24;;;;;;;11.57;7.25;;;;;;;3.98;100.00;99445.19;5181953;28;20030;-81
2021/11/29 08:53:55;;;;;;;13.50;7.25;;;;;;;3.99;100.00;99449.47;5183660;28;20034;-81
2021/11/29 08:56:25;;;;;;;13.80;7.30;;;;;;;3.87;100.00;99454.13;5179734;28;20041;-81
2021/11/29 08:58:56;;;;;;;11.38;6.85;;;;;;;3.84;100.00;99467.16;5179347;28;20025;-81
2021/11/29 09:01:26;;;;;;;11.73;6.90;;;;;;;3.98;100.00;99457.28;5179825;28;20459;-81
2021/11/29 09:03:57;;;;;;;12.07;6.85;;;;;;;4.02;100.00;99466.66;5197234;28;20265;-81
2021/11/29 09:06:27;;;;;;;12.57;6.82;;;;;;;4.10;100.00;99469.91;5194673;28;20575;-81
2021/11/29 09:08:58;;;;;;;11.55;6.20;;;;;;;4.09;100.00;99469.03;5180455;28;20029;-81
2021/11/29 09:11:28;;;;;;;11.30;6.35;;;;;;;3.91;100.00;99482.44;5178730;28;20026;-81
2021/11/29 09:13:59;;;;;;;12.32;6.38;;;;;;;4.12;100.00;99484.44;5179364;28;20112;-81
2021/11/29 09:16:29;;;;;;;12.57;6.47;;;;;;;4.15;100.00;99481.78;5175781;28;20052;-81
2021/11/29 09:19:00;;;;;;;12.65;6.57;;;;;;;4.04;100.00;99488.13;5185135;28;20034;-81
2021/11/29 09:21:31;;;;;;;12.68;6.50;;;;;;;3.96;100.00;99490.09;5197570;28;20042;-81
2021/11/29 09:24:02;;;;;;;11.80;6.50;;;;;;;4.00;100.00;99492.56;5176836;28;20025;-81
2021/11/29 09:26:33;;;;;;;13.88;6.97;;;;;;;4.04;100.00;99489.00;5174074;28;20266;-81
2021/11/29 09:29:03;;;;;;;13.15;7.05;;;;;;;4.04;100.00;99499.34;5173430;28;20401;-81
2021/11/29 09:31:33;;;;;;;12.88;7.03;;;;;;;4.08;100.00;99495.78;5179261;28;20029;-81
2021/11/29 09:34:04;;;;;;;15.10;7.78;;;;;;;4.02;100.00;99500.25;5180653;28;20032;-81
2021/11/29 09:36:35;;;;;;;13.13;7.32;;;;;;;4.20;100.00;99503.19;5174618;28;20022;-81
2021/11/29 09:39:07;;;;;;;16.67;8.90;;;;;;;4.13;100.00;99514.59;5181720;28;20034;-81
2021/11/29 09:41:38;;;;;;;18.20;9.75;;;;;;;4.17;100.00;99505.00;5181326;28;20026;-81
2021/11/29 09:44:08;;;;;;;16.13;8.50;;;;;;;4.17;100.00;99503.28;5195955;28;20084;-81
2021/11/29 09:46:39;;;;;;;17.05;8.60;;;;;;;4.15;100.00;99497.28;5184087;28;20032;-81
2021/11/29 09:49:09;;;;;;;16.95;9.23;;;;;;;4.33;100.00;99499.38;5179822;28;20033;-81
2021/11/29 09:51:40;;;;;;;18.50;9.55;;;;;;;4.37;100.00;99513.06;5179806;28;20026;-81
2021/11/29 09:54:10;;;;;;;17.58;8.95;;;;;;;4.55;100.00;99510.81;5198238;28;20245;-81
2021/11/29 09:56:42;;;;;;;17.90;9.18;;;;;;;4.51;100.00;99514.41;5180073;28;20034;-81
2021/11/29 09:59:12;;;;;;;16.80;9.35;;;;;;;4.47;100.00;99519.69;5196894;28;20095;-81
2021/11/29 10:01:43;;;;;;;18.58;9.93;;;;;;;4.32;100.00;99525.28;5178116;28;20401;-81
2021/11/29 10:04:13;;;;;;;22.38;11.75;;;;;;;4.38;100.00;99519.94;5179708;28;20034;-81
2021/11/29 10:06:46;;;;;;;18.33;10.10;;;;;;;4.31;100.00;99521.84;5182335;28;20040;-81
2021/11/29 10:09:31;;;;;;;15.63;8.95;;;;;;;4.25;100.00;99526.31;5181523;28;20130;-81
2021/11/29 10:12:10;;;;;;;16.33;9.60;;;;;;;4.34;100.00;99529.53;5181488;28;20054;-81
2021/11/29 10:14:40;;;;;;;16.40;8.60;;;;;;;4.36;100.00;99526.88;5193755;28;20093;-81
2021/11/29 10:17:11;;;;;;;17.38;9.45;;;;;;;4.39;100.00;99532.84;5186286;28;20049;-81
2021/11/29 10:19:41;;;;;;;17.55;8.13;;;;;;;4.33;100.00;99535.56;5188879;28;20030;-81
2021/11/29 10:22:19;;;;;;;16.98;9.52;;;;;;;4.48;100.00;99540.31;5195543;28;20497;-80
2021/11/29 10:24:51;;;;;;;15.95;8.65;;;;;;;4.55;100.00;99541.00;5195401;28;20026;-81
2021/11/29 10:27:40;;;;;;;17.48;8.45;;;;;;;4.56;100.00;99535.81;5190389;28;20035;-81
2021/11/29 10:30:16;;;;;;;17.30;8.20;;;;;;;4.58;100.00;99539.19;5187053;28;20342;-81
2021/11/29 10:32:47;;;;;;;;;;;;;;;4.45;100.00;99542.16;5200003;28;20292;-81
2021/11/29 10:35:36;;;;;;;14.02;7.22;;;;;;;4.41;100.00;99538.81;5194203;28;20287;-81
2021/11/29 10:38:07;;;;;;;21.50;10.98;;;;;;;4.45;100.00;99545.59;5179329;28;20022;-81
2021/11/29 10:40:38;;;;;;;17.92;8.88;;;;;;;4.45;100.00;99552.50;5182076;28;20034;-81
2021/11/29 10:43:08;;;;;;;25.65;11.60;;;;;;;4.47;100.00;99551.56;5184424;28;20053;-81
2021/11/29 10:45:40;;;;;;;23.25;10.27;;;;;;;4.47;100.00;99548.97;5179874;28;20084;-81
2021/11/29 10:48:24;;;;;;;33.92;13.52;;;;;;;4.44;100.00;99554.25;5177449;28;20046;-81
2021/11/29 10:51:09;;;;;;;22.45;10.57;;;;;;;4.54;100.00;99558.28;5180752;28;20481;-81
2021/11/29 10:53:45;;;;;;;14.82;7.47;;;;;;;4.64;100.00;99554.53;5178369;28;20445;-81
2021/11/29 10:56:16;;;;;;;12.73;6.40;;;;;;;4.50;100.00;99551.47;5181829;28;20056;-81
2021/11/29 10:58:49;;;;;;;16.20;7.30;;;;;;;4.50;100.00;99554.06;5180233;28;20090;-81
2021/11/29 11:01:35;;;;;;;17.83;8.80;;;;;;;4.53;100.00;99555.72;5198423;28;20025;-81
2021/11/29 11:04:08;;;;;;;12.73;6.72;;;;;;;4.48;100.00;99548.09;5190314;28;20061;-81
2021/11/29 11:06:48;;;;;;;16.25;8.07;;;;;;;4.39;100.00;99561.28;5190739;28;20026;-80
2021/11/29 11:09:22;;;;;;;15.88;8.68;;;;;;;4.50;100.00;99555.81;5181817;28;20330;-81
2021/11/29 11:11:59;;;;;;;16.17;7.88;;;;;;;4.52;100.00;99560.06;5180990;28;20026;-81
2021/11/29 11:14:35;;;;;;;12.65;6.68;;;;;;;4.50;100.00;99556.66;5181428;28;20527;-81
2021/11/29 11:17:07;;;;;;;12.57;7.15;;;;;;;4.47;100.00;99559.31;5177730;28;20040;-80
2021/11/29 11:19:40;;;;;;;13.68;7.18;;;;;;;4.42;100.00;99568.94;5174068;28;20222;-81
2021/11/29 11:22:11;;;;;;;16.20;7.88;;;;;;;4.51;100.00;99568.72;5181146;28;20064;-80
2021/11/29 11:25:07;;;;;;;14.88;8.00;;;;;;;4.52;100.00;99574.72;5181686;28;20036;-81
2021/11/29 11:28:03;;;;;;;13.87;6.47;;;;;;;4.47;100.00;99577.44;5174303;28;20046;-82
2021/11/29 11:30:39;;;;;;;14.45;8.05;;;;;;;4.48;100.00;99581.72;5196635;28;20034;-81
2021/11/29 11:33:14;;;;;;;12.73;7.05;;;;;;;4.29;100.00;99582.25;5175672;28;20038;-81
2021/11/29 11:35:49;;;;;;;12.85;6.15;;;;;;;4.24;100.00;99584.97;5182107;28;20030;-81
2021/11/29 11:38:23;;;;;;;14.52;7.32;;;;;;;4.28;100.00;99581.41;5180427;28;20038;-81
2021/11/29 11:40:54;;;;;;;15.00;7.00;;;;;;;4.30;100.00;99579.63;5181420;28;20030;-81
2021/11/29 11:43:25;;;;;;;11.88;6.28;;;;;;;4.29;100.00;99575.34;5194642;28;20048;-81
2021/11/29 11:45:55;;;;;;;11.45;5.82;;;;;;;4.34;100.00;99576.09;5179053;28;20029;-81
2021/11/29 11:48:26;;;;;;;10.63;6.03;;;;;;;4.18;100.00;99584.25;5170431;28;20030;-81